Time;durP1;ratioP1;P1;durP2;ratioP2;P2;SDS_P1;SDS_P2;PMS_P1;PMS_P2;Temp;Humidity;BMP_temperature;BMP_pressure;BME280_temperature;BME280_humidity;BME280_pressure;Samples;Min_cycle;Max_cycle;Signal;HPM_P1;HPM_P2
2023/09/11 00:01:30;;;;;;;13.40;8.65;;;;;;;;;;4932780;29;20035;-82
2023/09/11 00:03:57;;;;;;;11.80;8.55;;;;;;;;;;4912068;29;20408;-82
2023/09/11 00:06:22;;;;;;;13.65;8.65;;;;;;;;;;4916702;29;20495;-82
2023/09/11 00:08:47;;;;;;;10.50;7.90;;;;;;;;;;4918155;29;20144;-83
2023/09/11 00:11:13;;;;;;;12.50;8.23;;;;;;;;;;4932889;29;20396;-82
2023/09/11 00:13:38;;;;;;;12.20;8.90;;;;;;;;;;4934358;29;20032;-82
2023/09/11 00:16:03;;;;;;;10.77;7.97;;;;;;;;;;4916483;29;20090;-82
2023/09/11 00:18:29;;;;;;;12.45;8.25;;;;;;;;;;4914544;29;20038;-82
2023/09/11 00:20:54;;;;;;;11.75;8.75;;;;;;;;;;4913861;29;20027;-82
2023/09/11 00:23:20;;;;;;;12.30;10.45;;;;;;;;;;4919047;29;20102;-82
2023/09/11 00:25:45;;;;;;;12.05;8.90;;;;;;;;;;4918287;29;20437;-83
2023/09/11 00:28:10;;;;;;;11.05;9.52;;;;;;;;;;4920406;29;20040;-82
2023/09/11 00:30:36;;;;;;;12.45;10.63;;;;;;;;;;4913917;29;20067;-81
2023/09/11 00:33:02;;;;;;;12.73;10.50;;;;;;;;;;4933232;29;20043;-82
2023/09/11 00:35:28;;;;;;;12.90;10.43;;;;;;;;;;4919077;29;20039;-82
2023/09/11 00:37:53;;;;;;;15.13;9.65;;;;;;;;;;4917775;29;20440;-82
2023/09/11 00:40:18;;;;;;;11.65;9.75;;;;;;;;;;4933666;29;20039;-82
2023/09/11 00:42:44;;;;;;;15.40;9.63;;;;;;;;;;4919166;29;20050;-81
2023/09/11 00:45:11;;;;;;;15.32;10.15;;;;;;;;;;4918044;29;20127;-82
2023/09/11 00:47:38;;;;;;;12.60;9.93;;;;;;;;;;4929133;29;20500;-82
2023/09/11 00:50:04;;;;;;;13.45;10.55;;;;;;;;;;4931881;29;20143;-82
2023/09/11 00:52:30;;;;;;;13.57;9.55;;;;;;;;;;4911052;29;20515;-82
2023/09/11 00:54:56;;;;;;;14.35;10.70;;;;;;;;;;4929886;29;20072;-82
2023/09/11 00:57:22;;;;;;;12.65;10.60;;;;;;;;;;4922722;29;20020;-82
2023/09/11 00:59:51;;;;;;;14.23;10.88;;;;;;;;;;4916469;29;20035;-82
2023/09/11 01:02:17;;;;;;;13.15;9.07;;;;;;;;;;4917852;29;20543;-82
2023/09/11 01:04:43;;;;;;;12.82;9.23;;;;;;;;;;4934098;29;20027;-87
2023/09/11 01:07:09;;;;;;;11.38;9.23;;;;;;;;;;4934540;29;20023;-87
2023/09/11 01:09:34;;;;;;;12.23;8.68;;;;;;;;;;4932654;29;20035;-87
2023/09/11 01:12:00;;;;;;;13.77;9.45;;;;;;;;;;4918427;29;20082;-86
2023/09/11 01:14:26;;;;;;;13.73;9.27;;;;;;;;;;4921114;29;20086;-87
2023/09/11 01:16:59;;;;;;;14.48;11.00;;;;;;;;;;4916373;29;20032;-87
2023/09/11 01:19:55;;;;;;;10.82;9.27;;;;;;;;;;4923944;29;20020;-87
2023/09/11 01:22:39;;;;;;;12.55;9.90;;;;;;;;;;4924928;29;20042;-88
2023/09/11 01:25:51;;;;;;;13.07;10.48;;;;;;;;;;4924336;29;20023;-87
2023/09/11 01:28:57;;;;;;;11.70;8.77;;;;;;;;;;4924560;29;20480;-87
2023/09/11 01:31:24;;;;;;;13.63;10.20;;;;;;;;;;4912108;29;20042;-87
2023/09/11 01:33:53;;;;;;;14.93;11.20;;;;;;;;;;4930288;29;20016;-85
2023/09/11 01:36:19;;;;;;;13.90;10.30;;;;;;;;;;4919936;29;20488;-87
2023/09/11 01:38:44;;;;;;;11.82;9.57;;;;;;;;;;4916441;29;20027;-87
2023/09/11 01:41:11;;;;;;;13.27;10.43;;;;;;;;;;4913395;29;20024;-86
2023/09/11 01:43:37;;;;;;;14.35;10.57;;;;;;;;;;4931624;29;20047;-86
2023/09/11 01:46:05;;;;;;;11.93;9.38;;;;;;;;;;4929952;29;20029;-88
2023/09/11 01:48:33;;;;;;;12.10;10.80;;;;;;;;;;4917568;29;20448;-87
2023/09/11 01:50:59;;;;;;;20.33;12.57;;;;;;;;;;4916879;29;20118;-86
2023/09/11 01:53:24;;;;;;;13.48;9.63;;;;;;;;;;4918075;29;20122;-86
2023/09/11 01:55:50;;;;;;;11.70;9.68;;;;;;;;;;4915143;29;20126;-86
2023/09/11 01:58:16;;;;;;;15.68;11.13;;;;;;;;;;4916259;29;20475;-87
2023/09/11 02:00:41;;;;;;;13.60;10.02;;;;;;;;;;4917205;29;20028;-87
2023/09/11 02:03:06;;;;;;;15.27;11.18;;;;;;;;;;4916462;29;20055;-86
2023/09/11 02:05:32;;;;;;;13.82;10.93;;;;;;;;;;4931230;29;20036;-86
2023/09/11 02:07:57;;;;;;;12.75;8.95;;;;;;;;;;4921733;29;20031;-85
2023/09/11 02:10:22;;;;;;;13.00;9.45;;;;;;;;;;4937316;29;20027;-85
2023/09/11 02:12:48;;;;;;;12.35;10.20;;;;;;;;;;4936467;29;20027;-87
2023/09/11 02:15:13;;;;;;;14.15;10.05;;;;;;;;;;4921390;29;20118;-80
2023/09/11 02:17:39;;;;;;;12.80;10.27;;;;;;;;;;4920014;29;20027;-80
2023/09/11 02:20:05;;;;;;;12.32;9.70;;;;;;;;;;4919896;29;20098;-80
2023/09/11 02:22:30;;;;;;;11.40;9.73;;;;;;;;;;4931579;29;20039;-80
2023/09/11 02:24:56;;;;;;;13.88;10.15;;;;;;;;;;4919366;29;20048;-80
2023/09/11 02:27:21;;;;;;;12.52;10.15;;;;;;;;;;4932769;29;20067;-80
2023/09/11 02:29:46;;;;;;;12.32;10.38;;;;;;;;;;4919806;29;20051;-80
2023/09/11 02:32:12;;;;;;;12.82;11.48;;;;;;;;;;4934990;29;20032;-86
2023/09/11 02:34:37;;;;;;;16.45;9.88;;;;;;;;;;4920754;29;20032;-86
2023/09/11 02:37:03;;;;;;;14.75;9.93;;;;;;;;;;4934868;29;20078;-87
2023/09/11 02:39:28;;;;;;;12.43;10.15;;;;;;;;;;4919097;29;20035;-86
2023/09/11 02:41:54;;;;;;;11.55;9.70;;;;;;;;;;4918657;29;20035;-87
2023/09/11 02:44:19;;;;;;;13.10;10.25;;;;;;;;;;4920640;29;20607;-87
2023/09/11 02:46:44;;;;;;;12.65;9.40;;;;;;;;;;4920085;29;20036;-87
2023/09/11 02:49:10;;;;;;;13.38;10.02;;;;;;;;;;4919320;29;20095;-82
2023/09/11 02:51:35;;;;;;;12.63;8.65;;;;;;;;;;4941745;29;20047;-83
2023/09/11 02:54:00;;;;;;;11.00;9.48;;;;;;;;;;4915885;29;20079;-83
2023/09/11 02:56:26;;;;;;;15.70;9.65;;;;;;;;;;4918863;29;20103;-82
2023/09/11 02:58:51;;;;;;;11.55;9.75;;;;;;;;;;4934254;29;20038;-81
2023/09/11 03:01:17;;;;;;;13.73;9.82;;;;;;;;;;4936320;29;20039;-82
2023/09/11 03:03:43;;;;;;;11.85;9.95;;;;;;;;;;4932416;29;20035;-82
2023/09/11 03:06:08;;;;;;;10.60;9.48;;;;;;;;;;4918678;29;20038;-80
2023/09/11 03:08:33;;;;;;;14.43;10.48;;;;;;;;;;4913565;29;20041;-81
2023/09/11 03:11:07;;;;;;;13.93;10.10;;;;;;;;;;4918380;29;20119;-81
2023/09/11 03:13:33;;;;;;;11.48;9.55;;;;;;;;;;4912665;29;20034;-81
2023/09/11 03:16:14;;;;;;;10.43;9.30;;;;;;;;;;4934111;29;20122;-81
2023/09/11 03:18:40;;;;;;;14.70;9.75;;;;;;;;;;4919021;29;20031;-80
2023/09/11 03:21:07;;;;;;;14.57;9.98;;;;;;;;;;4913215;29;20400;-81
2023/09/11 03:23:33;;;;;;;13.60;9.55;;;;;;;;;;4936408;29;20027;-80
2023/09/11 03:25:58;;;;;;;10.13;8.68;;;;;;;;;;4918397;29;20556;-87
2023/09/11 03:28:29;;;;;;;13.88;9.70;;;;;;;;;;4933699;29;20123;-87
2023/09/11 03:30:55;;;;;;;11.43;8.93;;;;;;;;;;4935213;29;20042;-87
2023/09/11 03:33:20;;;;;;;13.88;9.27;;;;;;;;;;4919394;29;20039;-87
2023/09/11 03:35:49;;;;;;;13.25;9.48;;;;;;;;;;4919504;29;20555;-86
2023/09/11 03:38:15;;;;;;;14.63;9.75;;;;;;;;;;4916797;29;20028;-87
2023/09/11 03:40:43;;;;;;;11.13;8.65;;;;;;;;;;4912509;29;20082;-86
2023/09/11 03:43:09;;;;;;;12.43;9.02;;;;;;;;;;4918935;29;20094;-87
2023/09/11 03:45:34;;;;;;;11.27;8.57;;;;;;;;;;4933418;29;20436;-86
2023/09/11 03:47:59;;;;;;;14.93;10.02;;;;;;;;;;4915558;29;20622;-87
2023/09/11 03:50:25;;;;;;;12.43;9.52;;;;;;;;;;4936009;29;20087;-87
2023/09/11 03:52:50;;;;;;;12.57;8.90;;;;;;;;;;4936293;29;20028;-87
2023/09/11 03:55:17;;;;;;;13.18;8.95;;;;;;;;;;4917947;29;20122;-87
2023/09/11 03:57:42;;;;;;;12.45;9.02;;;;;;;;;;4920821;29;20027;-87
2023/09/11 04:00:08;;;;;;;10.80;8.32;;;;;;;;;;4935907;29;20028;-84
2023/09/11 04:02:34;;;;;;;12.52;9.18;;;;;;;;;;4935051;29;20028;-87
2023/09/11 04:04:59;;;;;;;12.07;9.27;;;;;;;;;;4917337;29;20114;-85
2023/09/11 04:07:24;;;;;;;10.48;8.00;;;;;;;;;;4921925;29;20027;-87
2023/09/11 04:09:50;;;;;;;10.30;8.30;;;;;;;;;;4916068;29;20031;-87
2023/09/11 04:12:16;;;;;;;12.05;8.88;;;;;;;;;;4918699;29;20028;-87
2023/09/11 04:14:45;;;;;;;10.10;8.55;;;;;;;;;;4920200;29;20157;-86
2023/09/11 04:17:11;;;;;;;9.30;8.15;;;;;;;;;;4910697;29;20075;-87
2023/09/11 04:19:38;;;;;;;11.98;8.02;;;;;;;;;;4918940;29;20027;-84
2023/09/11 04:22:04;;;;;;;10.38;8.23;;;;;;;;;;4932452;29;20488;-86
2023/09/11 04:24:30;;;;;;;14.45;8.88;;;;;;;;;;4916188;29;20034;-85
2023/09/11 04:26:55;;;;;;;11.57;8.43;;;;;;;;;;4914711;29;20469;-86
2023/09/11 04:29:21;;;;;;;12.98;9.00;;;;;;;;;;4917427;29;20027;-87
2023/09/11 04:31:46;;;;;;;12.90;8.75;;;;;;;;;;4925187;29;20032;-87
2023/09/11 04:34:12;;;;;;;13.18;9.07;;;;;;;;;;4920789;29;20032;-80
2023/09/11 04:36:37;;;;;;;11.57;8.27;;;;;;;;;;4916053;29;20038;-86
2023/09/11 04:39:04;;;;;;;9.35;7.72;;;;;;;;;;4920989;29;20118;-86
2023/09/11 04:41:29;;;;;;;11.27;9.35;;;;;;;;;;4931588;29;20478;-85
2023/09/11 04:43:55;;;;;;;11.32;9.30;;;;;;;;;;4931807;29;20123;-85
2023/09/11 04:46:20;;;;;;;10.45;8.18;;;;;;;;;;4916055;29;20032;-85
2023/09/11 04:48:46;;;;;;;12.68;8.85;;;;;;;;;;4918243;29;20123;-85
2023/09/11 04:51:11;;;;;;;11.27;8.57;;;;;;;;;;4911070;29;20036;-85
2023/09/11 04:53:37;;;;;;;12.88;8.90;;;;;;;;;;4917308;29;20050;-85
2023/09/11 04:56:02;;;;;;;12.23;8.65;;;;;;;;;;4918155;29;20067;-85
2023/09/11 04:58:28;;;;;;;10.00;8.40;;;;;;;;;;4918255;29;20392;-86
2023/09/11 05:00:53;;;;;;;12.18;9.13;;;;;;;;;;4919559;29;20436;-85
2023/09/11 05:03:19;;;;;;;15.88;9.43;;;;;;;;;;4931672;29;20020;-85
2023/09/11 05:05:44;;;;;;;13.70;9.27;;;;;;;;;;4927442;29;20489;-84
2023/09/11 05:08:10;;;;;;;12.15;9.20;;;;;;;;;;4933419;29;20130;-86
2023/09/11 05:10:41;;;;;;;12.65;9.35;;;;;;;;;;4935820;29;20388;-86
2023/09/11 05:13:06;;;;;;;14.55;10.00;;;;;;;;;;4933752;29;20031;-86
2023/09/11 05:15:31;;;;;;;15.38;8.77;;;;;;;;;;4919228;29;20043;-85
2023/09/11 05:17:57;;;;;;;10.52;8.40;;;;;;;;;;4914991;29;20023;-84
2023/09/11 05:20:22;;;;;;;11.50;9.38;;;;;;;;;;4916746;29;20049;-84
2023/09/11 05:22:47;;;;;;;12.25;8.40;;;;;;;;;;4932423;29;21338;-86
2023/09/11 05:25:15;;;;;;;16.55;9.63;;;;;;;;;;4929064;29;20038;-85
2023/09/11 05:27:41;;;;;;;10.55;9.27;;;;;;;;;;4930436;29;20369;-84
2023/09/11 05:30:07;;;;;;;13.30;9.55;;;;;;;;;;4929620;29;20071;-85
2023/09/11 05:32:32;;;;;;;11.30;8.57;;;;;;;;;;4904631;29;20062;-85
2023/09/11 05:34:58;;;;;;;11.98;9.73;;;;;;;;;;4908659;29;20051;-85
2023/09/11 05:37:23;;;;;;;15.38;9.82;;;;;;;;;;4912212;29;20055;-86
2023/09/11 05:39:49;;;;;;;12.77;9.73;;;;;;;;;;4913771;29;20036;-85
2023/09/11 05:42:14;;;;;;;14.40;9.13;;;;;;;;;;4911880;29;20035;-85
2023/09/11 05:44:39;;;;;;;13.10;8.70;;;;;;;;;;4932287;29;20515;-82
2023/09/11 05:47:07;;;;;;;14.05;9.45;;;;;;;;;;4917748;29;20028;-82
2023/09/11 05:49:33;;;;;;;12.43;9.05;;;;;;;;;;4927259;29;20040;-82
2023/09/11 05:51:58;;;;;;;12.98;8.65;;;;;;;;;;4930800;29;20506;-82
2023/09/11 05:54:24;;;;;;;11.98;9.55;;;;;;;;;;4918080;29;20028;-82
2023/09/11 05:56:50;;;;;;;11.70;8.90;;;;;;;;;;4915118;29;20020;-82
2023/09/11 05:59:18;;;;;;;14.02;9.52;;;;;;;;;;4939749;29;20098;-82
2023/09/11 06:01:45;;;;;;;11.60;9.75;;;;;;;;;;4921101;29;20024;-82
2023/09/11 06:04:11;;;;;;;10.32;8.52;;;;;;;;;;4921518;29;20032;-82
2023/09/11 06:06:37;;;;;;;11.75;8.98;;;;;;;;;;4923398;29;20016;-82
2023/09/11 06:09:06;;;;;;;14.07;9.77;;;;;;;;;;4920907;29;20024;-83
2023/09/11 06:11:31;;;;;;;12.52;8.85;;;;;;;;;;4934951;29;20070;-82
2023/09/11 06:13:57;;;;;;;11.48;8.45;;;;;;;;;;4919811;29;20036;-82
2023/09/11 06:16:24;;;;;;;12.38;8.95;;;;;;;;;;4923224;29;20151;-82
2023/09/11 06:18:49;;;;;;;9.98;8.07;;;;;;;;;;4919362;29;20429;-82
2023/09/11 06:21:15;;;;;;;12.32;7.95;;;;;;;;;;4916164;29;20019;-82
2023/09/11 06:23:40;;;;;;;11.50;8.45;;;;;;;;;;4935206;29;20039;-82
2023/09/11 06:26:06;;;;;;;12.05;8.63;;;;;;;;;;4920283;29;20028;-82
2023/09/11 06:28:31;;;;;;;9.43;7.30;;;;;;;;;;4917727;29;20024;-82
2023/09/11 06:30:57;;;;;;;13.23;8.05;;;;;;;;;;4920509;29;20032;-82
2023/09/11 06:33:22;;;;;;;13.85;8.25;;;;;;;;;;4918983;29;20056;-82
2023/09/11 06:35:47;;;;;;;11.30;7.40;;;;;;;;;;4919358;29;20031;-82
2023/09/11 06:38:13;;;;;;;9.32;7.32;;;;;;;;;;4920610;29;20038;-82
2023/09/11 06:40:38;;;;;;;9.68;7.07;;;;;;;;;;4920509;29;20032;-82
2023/09/11 06:43:03;;;;;;;10.13;7.78;;;;;;;;;;4937043;29;20055;-82
2023/09/11 06:45:31;;;;;;;11.63;7.93;;;;;;;;;;4923221;29;20036;-82
2023/09/11 06:47:58;;;;;;;10.52;7.40;;;;;;;;;;4912719;29;20030;-82
2023/09/11 06:50:24;;;;;;;8.60;6.97;;;;;;;;;;4936238;29;20035;-82
2023/09/11 06:52:51;;;;;;;11.82;7.15;;;;;;;;;;4919713;29;20168;-82
2023/09/11 06:55:16;;;;;;;13.88;8.20;;;;;;;;;;4916826;29;20085;-86
2023/09/11 06:57:59;;;;;;;9.88;7.25;;;;;;;;;;4921062;29;20110;-87
2023/09/11 07:00:24;;;;;;;8.05;6.30;;;;;;;;;;4936637;29;20035;-87
2023/09/11 07:02:51;;;;;;;8.27;6.57;;;;;;;;;;4937262;29;20139;-85
2023/09/11 07:05:17;;;;;;;9.13;6.82;;;;;;;;;;4940784;29;20478;-87
2023/09/11 07:07:43;;;;;;;12.77;8.38;;;;;;;;;;4917907;29;20461;-87
2023/09/11 07:10:15;;;;;;;7.90;6.57;;;;;;;;;;4919275;29;20020;-86
2023/09/11 07:12:47;;;;;;;13.52;6.97;;;;;;;;;;4937481;29;20447;-87
2023/09/11 07:15:13;;;;;;;15.50;8.45;;;;;;;;;;4925733;29;20488;-87
2023/09/11 07:17:39;;;;;;;10.90;7.30;;;;;;;;;;4922874;29;20035;-86
2023/09/11 07:20:05;;;;;;;10.65;7.63;;;;;;;;;;4941503;29;20465;-87
2023/09/11 07:22:31;;;;;;;12.82;8.68;;;;;;;;;;4935148;29;20036;-86
2023/09/11 07:24:57;;;;;;;13.77;8.20;;;;;;;;;;4912581;29;20035;-87
2023/09/11 07:27:23;;;;;;;9.27;6.38;;;;;;;;;;4936921;29;20024;-87
2023/09/11 07:29:49;;;;;;;13.27;9.05;;;;;;;;;;4913814;29;20044;-87
2023/09/11 07:32:14;;;;;;;14.90;8.70;;;;;;;;;;4939387;29;20534;-88
2023/09/11 07:34:40;;;;;;;12.88;8.23;;;;;;;;;;4920118;29;20024;-86
2023/09/11 07:37:05;;;;;;;14.13;8.52;;;;;;;;;;4922105;29;20388;-86
2023/09/11 07:39:31;;;;;;;14.43;7.88;;;;;;;;;;4937005;29;20031;-87
2023/09/11 07:41:56;;;;;;;14.10;8.77;;;;;;;;;;4919796;29;20476;-87
2023/09/11 07:44:22;;;;;;;13.00;7.95;;;;;;;;;;4919481;29;20031;-87
2023/09/11 07:46:48;;;;;;;11.45;8.60;;;;;;;;;;4921509;29;20028;-87
2023/09/11 07:49:14;;;;;;;11.18;8.25;;;;;;;;;;4919750;29;20016;-87
2023/09/11 07:51:39;;;;;;;12.70;9.73;;;;;;;;;;4936776;29;20361;-87
2023/09/11 07:54:05;;;;;;;16.65;8.43;;;;;;;;;;4937764;29;20032;-86
2023/09/11 07:56:30;;;;;;;11.07;8.00;;;;;;;;;;4941339;29;20035;-86
2023/09/11 07:58:56;;;;;;;12.75;9.02;;;;;;;;;;4922018;29;20027;-86
2023/09/11 08:01:25;;;;;;;15.43;8.27;;;;;;;;;;4918278;29;20034;-86
2023/09/11 08:03:51;;;;;;;12.90;8.85;;;;;;;;;;4920321;29;20040;-84
2023/09/11 08:06:16;;;;;;;14.35;9.13;;;;;;;;;;4918872;29;20094;-83
2023/09/11 08:08:42;;;;;;;14.05;9.35;;;;;;;;;;4931232;29;20079;-84
2023/09/11 08:11:20;;;;;;;16.50;9.60;;;;;;;;;;4932264;29;20492;-85
2023/09/11 08:13:46;;;;;;;14.25;10.15;;;;;;;;;;4934649;29;20030;-85
2023/09/11 08:16:13;;;;;;;15.50;10.70;;;;;;;;;;4919399;29;20105;-86
2023/09/11 08:18:38;;;;;;;15.65;11.15;;;;;;;;;;4919345;29;20019;-86
2023/09/11 08:21:04;;;;;;;17.83;11.32;;;;;;;;;;4919216;29;20086;-87
2023/09/11 08:23:31;;;;;;;14.40;11.00;;;;;;;;;;4935931;29;20078;-85
2023/09/11 08:25:57;;;;;;;15.85;11.23;;;;;;;;;;4921628;29;20122;-84
2023/09/11 08:28:23;;;;;;;13.48;11.18;;;;;;;;;;4913384;29;20044;-86
2023/09/11 08:30:50;;;;;;;18.65;10.43;;;;;;;;;;4921950;29;20034;-86
2023/09/11 08:33:16;;;;;;;15.60;10.25;;;;;;;;;;4926776;29;20514;-86
2023/09/11 08:35:42;;;;;;;13.82;11.23;;;;;;;;;;4921099;29;20035;-86
2023/09/11 08:38:09;;;;;;;17.20;12.70;;;;;;;;;;4918600;29;20476;-86
2023/09/11 08:40:36;;;;;;;15.73;10.90;;;;;;;;;;4923291;29;20020;-86
2023/09/11 08:43:02;;;;;;;16.88;11.07;;;;;;;;;;4918783;29;20484;-86
2023/09/11 08:45:28;;;;;;;17.23;10.73;;;;;;;;;;4919114;29;20024;-87
2023/09/11 08:47:58;;;;;;;13.35;10.15;;;;;;;;;;4928582;29;20034;-86
2023/09/11 08:50:31;;;;;;;12.65;10.77;;;;;;;;;;4909699;29;20377;-86
2023/09/11 08:52:59;;;;;;;17.45;10.75;;;;;;;;;;4935123;29;20035;-80
2023/09/11 08:55:26;;;;;;;15.27;11.48;;;;;;;;;;4918295;29;20114;-80
2023/09/11 08:57:52;;;;;;;15.52;10.68;;;;;;;;;;4932369;29;20102;-81
2023/09/11 09:00:19;;;;;;;15.25;10.52;;;;;;;;;;4916744;29;20024;-80
2023/09/11 09:02:45;;;;;;;12.48;8.85;;;;;;;;;;4916024;29;20040;-81
2023/09/11 09:05:11;;;;;;;14.00;9.75;;;;;;;;;;4922403;29;20028;-81
2023/09/11 09:07:37;;;;;;;16.98;11.05;;;;;;;;;;4931688;29;20035;-81
2023/09/11 09:10:04;;;;;;;13.38;9.85;;;;;;;;;;4917069;29;20079;-80
2023/09/11 09:12:30;;;;;;;14.63;8.90;;;;;;;;;;4917533;29;20026;-80
2023/09/11 09:14:56;;;;;;;16.80;9.77;;;;;;;;;;4934596;29;20024;-80
2023/09/11 09:17:22;;;;;;;12.20;9.02;;;;;;;;;;4917944;29;20028;-80
2023/09/11 09:19:48;;;;;;;15.30;10.07;;;;;;;;;;4917968;29;20074;-80
2023/09/11 09:22:13;;;;;;;12.93;10.20;;;;;;;;;;4921568;29;20051;-80
2023/09/11 09:24:53;;;;;;;15.48;10.50;;;;;;;;;;4921188;29;20030;-82
2023/09/11 09:27:20;;;;;;;17.38;10.40;;;;;;;;;;4939550;29;20055;-82
2023/09/11 09:29:47;;;;;;;19.15;10.55;;;;;;;;;;4917898;29;20082;-82
2023/09/11 09:32:16;;;;;;;18.05;9.55;;;;;;;;;;4918105;29;20023;-82
2023/09/11 09:34:55;;;;;;;10.98;7.50;;;;;;;;;;4917558;29;20043;-82
2023/09/11 09:37:21;;;;;;;12.88;10.27;;;;;;;;;;4933828;29;20388;-82
2023/09/11 09:39:51;;;;;;;18.10;10.88;;;;;;;;;;4918480;29;20090;-83
2023/09/11 09:42:17;;;;;;;14.27;9.73;;;;;;;;;;4922940;29;20484;-80
2023/09/11 09:44:47;;;;;;;13.85;9.70;;;;;;;;;;4910836;29;20038;-80
2023/09/11 09:47:15;;;;;;;14.02;8.40;;;;;;;;;;4919301;29;20023;-80
2023/09/11 09:49:44;;;;;;;13.68;8.70;;;;;;;;;;4917750;29;20024;-81
2023/09/11 09:52:10;;;;;;;13.55;9.20;;;;;;;;;;4918723;29;20055;-80
2023/09/11 09:54:43;;;;;;;14.85;10.07;;;;;;;;;;4931834;29;20555;-81
2023/09/11 09:57:10;;;;;;;12.98;8.13;;;;;;;;;;4922286;29;20062;-82
2023/09/11 09:59:36;;;;;;;12.13;9.18;;;;;;;;;;4931319;29;20019;-80
2023/09/11 10:02:02;;;;;;;12.57;9.25;;;;;;;;;;4917645;29;20511;-81
2023/09/11 10:04:31;;;;;;;13.40;9.27;;;;;;;;;;4917454;29;20039;-81
2023/09/11 10:06:58;;;;;;;12.23;8.75;;;;;;;;;;4925346;29;20043;-80
2023/09/11 10:09:24;;;;;;;11.07;7.97;;;;;;;;;;4932592;29;20110;-81
2023/09/11 10:11:50;;;;;;;12.88;9.38;;;;;;;;;;4920917;29;20179;-80
2023/09/11 10:14:18;;;;;;;16.58;10.18;;;;;;;;;;4917303;29;20036;-81
2023/09/11 10:16:45;;;;;;;11.75;7.95;;;;;;;;;;4918096;29;20495;-81
2023/09/11 10:19:13;;;;;;;15.23;10.93;;;;;;;;;;4919046;29;20020;-80
2023/09/11 10:21:46;;;;;;;15.05;9.90;;;;;;;;;;4919462;29;20027;-80
2023/09/11 10:24:12;;;;;;;12.93;9.63;;;;;;;;;;4918963;29;20036;-81
2023/09/11 10:26:45;;;;;;;11.93;9.18;;;;;;;;;;4923647;28;20023;-81
2023/09/11 10:29:19;;;;;;;15.25;10.10;;;;;;;;;;4929993;29;20034;-81
2023/09/11 10:31:56;;;;;;;14.98;10.75;;;;;;;;;;4929504;29;20027;-81
2023/09/11 10:34:24;;;;;;;13.20;10.35;;;;;;;;;;4922530;29;20472;-81
2023/09/11 10:36:55;;;;;;;13.93;9.75;;;;;;;;;;4936303;29;20454;-81
2023/09/11 10:39:21;;;;;;;14.18;9.95;;;;;;;;;;4920943;29;20038;-80
2023/09/11 10:41:55;;;;;;;17.80;9.80;;;;;;;;;;4919998;29;20047;-80
2023/09/11 10:44:21;;;;;;;15.30;9.50;;;;;;;;;;4937861;29;20034;-81
2023/09/11 10:47:04;;;;;;;15.80;9.57;;;;;;;;;;4937039;29;20032;-80
2023/09/11 10:49:37;;;;;;;13.82;8.93;;;;;;;;;;4938860;29;20492;-81
2023/09/11 10:52:05;;;;;;;;;;;;;;;;;;4920987;29;20023;-82
2023/09/11 10:54:37;;;;;;;9.05;5.80;;;;;;;;;;4920435;29;20422;-83
2023/09/11 10:57:02;;;;;;;11.18;7.45;;;;;;;;;;4937689;29;20384;-83
2023/09/11 10:59:34;;;;;;;17.40;10.65;;;;;;;;;;4937548;29;20023;-83
2023/09/11 11:02:01;;;;;;;14.35;8.02;;;;;;;;;;4919835;29;20028;-83
2023/09/11 11:04:33;;;;;;;12.63;6.82;;;;;;;;;;4936431;29;20031;-83
2023/09/11 11:07:02;;;;;;;22.65;11.60;;;;;;;;;;4919317;29;20024;-83
2023/09/11 11:09:33;;;;;;;16.02;9.23;;;;;;;;;;4925013;29;20080;-83
2023/09/11 11:12:06;;;;;;;11.75;7.70;;;;;;;;;;4915205;29;20476;-83
2023/09/11 11:14:31;;;;;;;15.95;9.18;;;;;;;;;;4937337;29;20102;-83
2023/09/11 11:17:07;;;;;;;13.13;8.93;;;;;;;;;;4919600;29;20194;-84
2023/09/11 11:19:36;;;;;;;12.25;7.43;;;;;;;;;;4937334;29;20376;-83
2023/09/11 11:22:07;;;;;;;10.95;6.80;;;;;;;;;;4922683;29;20516;-83
2023/09/11 11:24:48;;;;;;;11.80;7.18;;;;;;;;;;4921808;29;20032;-83
2023/09/11 11:27:16;;;;;;;14.13;7.90;;;;;;;;;;4919624;29;20024;-84
2023/09/11 11:29:46;;;;;;;18.02;9.48;;;;;;;;;;4919892;29;20399;-83
2023/09/11 11:32:16;;;;;;;10.93;6.93;;;;;;;;;;4936965;29;20218;-83
2023/09/11 11:34:47;;;;;;;11.82;7.00;;;;;;;;;;4931390;29;20036;-83
2023/09/11 11:37:21;;;;;;;10.68;6.47;;;;;;;;;;4920741;29;20036;-81
2023/09/11 11:39:47;;;;;;;22.15;12.35;;;;;;;;;;4937177;29;20031;-87
2023/09/11 11:42:16;;;;;;;27.85;13.68;;;;;;;;;;4920010;29;20031;-88
2023/09/11 11:44:41;;;;;;;15.15;8.35;;;;;;;;;;4935857;29;20054;-84
2023/09/11 11:47:12;;;;;;;11.93;6.47;;;;;;;;;;4922505;29;20388;-85
2023/09/11 11:49:53;;;;;;;7.72;4.57;;;;;;;;;;4919738;29;20160;-84
2023/09/11 11:52:23;;;;;;;8.70;4.85;;;;;;;;;;4933112;29;20024;-84
2023/09/11 11:54:51;;;;;;;8.10;4.00;;;;;;;;;;4919525;29;20384;-84
2023/09/11 11:57:19;;;;;;;7.05;4.47;;;;;;;;;;4916287;29;20028;-84
2023/09/11 11:59:46;;;;;;;9.15;4.35;;;;;;;;;;4935876;29;20020;-84
2023/09/11 12:02:27;;;;;;;8.85;5.13;;;;;;;;;;4919329;29;20039;-84
2023/09/11 12:04:53;;;;;;;7.43;4.03;;;;;;;;;;4929080;29;20039;-84
2023/09/11 12:07:19;;;;;;;8.32;4.38;;;;;;;;;;4921823;29;20514;-84
2023/09/11 12:09:53;;;;;;;7.78;4.20;;;;;;;;;;4919901;29;20027;-84
2023/09/11 12:12:21;;;;;;;6.63;3.85;;;;;;;;;;4919565;29;20570;-84
2023/09/11 12:14:47;;;;;;;10.50;4.20;;;;;;;;;;4919384;29;20473;-84
2023/09/11 12:17:13;;;;;;;8.80;4.35;;;;;;;;;;4919450;29;20020;-84
2023/09/11 12:19:42;;;;;;;8.43;4.15;;;;;;;;;;4919429;29;20487;-84
2023/09/11 12:22:08;;;;;;;6.50;4.00;;;;;;;;;;4923048;29;20127;-84
2023/09/11 12:24:34;;;;;;;7.53;3.40;;;;;;;;;;4919232;29;20031;-82
2023/09/11 12:27:00;;;;;;;5.68;3.22;;;;;;;;;;4918211;29;20035;-81
2023/09/11 12:29:27;;;;;;;5.15;3.40;;;;;;;;;;4918681;29;20067;-81
2023/09/11 12:32:01;;;;;;;7.35;3.83;;;;;;;;;;4935772;29;20063;-81
2023/09/11 12:34:42;;;;;;;4.72;2.83;;;;;;;;;;4919836;29;20027;-82
2023/09/11 12:37:10;;;;;;;5.47;3.30;;;;;;;;;;4922491;29;20023;-82
2023/09/11 12:39:38;;;;;;;7.85;3.45;;;;;;;;;;4922715;29;20087;-82
2023/09/11 12:42:04;;;;;;;4.65;2.80;;;;;;;;;;4918733;29;20019;-82
2023/09/11 12:44:32;;;;;;;3.67;2.53;;;;;;;;;;4918417;29;20415;-82
2023/09/11 12:47:00;;;;;;;4.35;2.70;;;;;;;;;;4918513;29;20547;-81
2023/09/11 12:49:28;;;;;;;5.03;3.10;;;;;;;;;;4935515;29;20468;-82
2023/09/11 12:51:57;;;;;;;5.45;3.13;;;;;;;;;;4917801;29;20400;-81
2023/09/11 12:54:24;;;;;;;9.80;4.10;;;;;;;;;;4921058;29;20081;-87
2023/09/11 12:57:04;;;;;;;7.93;3.80;;;;;;;;;;4933520;29;20024;-81
2023/09/11 12:59:35;;;;;;;6.57;3.40;;;;;;;;;;4932563;29;20107;-81
2023/09/11 13:02:02;;;;;;;6.07;3.22;;;;;;;;;;4912105;29;20035;-81
2023/09/11 13:04:28;;;;;;;6.28;3.10;;;;;;;;;;4918612;29;20032;-81
2023/09/11 13:06:54;;;;;;;7.05;3.40;;;;;;;;;;4923867;29;20032;-81
2023/09/11 13:09:23;;;;;;;5.88;3.33;;;;;;;;;;4923700;29;20038;-82
2023/09/11 13:11:51;;;;;;;4.75;2.92;;;;;;;;;;4935123;29;20030;-82
2023/09/11 13:14:16;;;;;;;5.57;3.28;;;;;;;;;;4932050;29;20060;-82
2023/09/11 13:16:43;;;;;;;7.03;3.30;;;;;;;;;;4933418;29;20063;-81
2023/09/11 13:19:09;;;;;;;6.35;2.97;;;;;;;;;;4917139;29;20015;-82
2023/09/11 13:21:36;;;;;;;6.63;3.08;;;;;;;;;;4920123;29;20050;-82
2023/09/11 13:24:04;;;;;;;5.15;2.88;;;;;;;;;;4935832;29;20511;-82
2023/09/11 13:26:29;;;;;;;6.25;3.30;;;;;;;;;;4916053;29;20027;-82
2023/09/11 13:28:56;;;;;;;7.20;3.13;;;;;;;;;;4939089;29;20563;-82
2023/09/11 13:31:21;;;;;;;6.47;2.90;;;;;;;;;;4920653;29;20548;-81
2023/09/11 13:33:47;;;;;;;5.00;2.85;;;;;;;;;;4919250;29;20199;-82
2023/09/11 13:36:12;;;;;;;6.00;2.90;;;;;;;;;;4927506;29;20023;-82
2023/09/11 13:38:39;;;;;;;7.90;2.80;;;;;;;;;;4917913;29;20114;-82
2023/09/11 13:41:04;;;;;;;5.60;3.08;;;;;;;;;;4919654;29;20403;-82
2023/09/11 13:43:31;;;;;;;3.97;2.80;;;;;;;;;;4909719;29;20027;-81
2023/09/11 13:45:56;;;;;;;5.03;2.70;;;;;;;;;;4915663;29;20210;-82
2023/09/11 13:48:22;;;;;;;4.65;2.90;;;;;;;;;;4910090;29;20241;-81
2023/09/11 13:50:47;;;;;;;7.28;3.08;;;;;;;;;;4928983;29;20028;-87
2023/09/11 13:53:13;;;;;;;5.93;3.40;;;;;;;;;;4931301;29;20035;-88
2023/09/11 13:55:41;;;;;;;5.15;3.25;;;;;;;;;;4930463;29;20035;-87
2023/09/11 13:58:09;;;;;;;6.90;3.10;;;;;;;;;;4907351;29;20391;-86
2023/09/11 14:00:37;;;;;;;5.53;3.10;;;;;;;;;;4915767;29;20507;-87
2023/09/11 14:03:02;;;;;;;6.68;3.33;;;;;;;;;;4919912;29;20031;-84
2023/09/11 14:05:31;;;;;;;9.15;3.72;;;;;;;;;;4930703;29;20323;-82
2023/09/11 14:08:07;;;;;;;6.20;3.47;;;;;;;;;;4918356;29;20480;-82
2023/09/11 14:10:33;;;;;;;6.50;3.05;;;;;;;;;;4922616;29;20031;-83
2023/09/11 14:13:12;;;;;;;6.78;2.83;;;;;;;;;;4935343;29;20043;-84
2023/09/11 14:15:59;;;;;;;6.63;3.28;;;;;;;;;;4916711;29;20031;-83
2023/09/11 14:18:24;;;;;;;6.05;3.03;;;;;;;;;;4925967;29;20059;-85
2023/09/11 14:20:52;;;;;;;6.88;3.35;;;;;;;;;;4933574;29;20531;-85
2023/09/11 14:23:25;;;;;;;5.78;3.33;;;;;;;;;;4930356;29;20027;-85
2023/09/11 14:25:50;;;;;;;5.13;3.30;;;;;;;;;;4922865;29;20040;-85
2023/09/11 14:28:25;;;;;;;5.88;3.40;;;;;;;;;;4934486;29;20027;-83
2023/09/11 14:30:50;;;;;;;6.22;3.53;;;;;;;;;;4905880;29;20496;-83
2023/09/11 14:33:19;;;;;;;5.50;3.13;;;;;;;;;;4918556;29;20034;-84